Biddeford, ME (04005)

6:27 PM EDT on August 22, 2017 (GMT -0400)
Saco Maine | | Change Station
Active Advisory: Coastal Flood Statement Active Notice: Coastal Flood Statement

Elev 82 ft 43.50 °N, 70.44 °W | Updated 9 seconds ago

Partly Cloudy
Partly Cloudy
77.5 °F
Feels Like 79 °F
N
1.8
Wind Variable Wind from NNW
Gusts 2.5 mph

Today
High -- | Low -- °F
--% Chance of Precip.
Yesterday
High -- | Low -- °F
Precip. -- in
Pressure 29.75 in
Visibility 10.0 miles
Clouds Mostly Cloudy 20000 ft
Heat Index 79 °F
Dew Point 70 °F
Humidity 77%
Rainfall 0.00 in
Snow Depth Not available.
5:54 AM 7:33 PM
New Moon, 2% visible
METAR KPWM 222151Z 18012KT 10SM BKN200 24/20 A2974 RMK AO2 SLP072 T02440200
Pressure 29.75 in
Visibility 10.0 miles
Clouds Mostly Cloudy 20000 ft
Heat Index 79 °F
Dew Point 70 °F
Humidity 77%
Rainfall 0.00 in
Snow Depth Not available.
5:54 AM 7:33 PM
New Moon, 2% visible
METAR KPWM 222151Z 18012KT 10SM BKN200 24/20 A2974 RMK AO2 SLP072 T02440200

Get Your Daily Forecast Email!

Thanks for signing up!

Be on the lookout for a verification email in your inbox.

You'll start receiving severe weather alerts in your inbox..

×

10-Day Weather Forecast

Almanac

Astronomy

Aug. 22, 2017 Rise Set
Actual Time
Civil Twilight
Nautical Twilight
Astronomical Twilight
Moon
Length of Visible Light
Length of Day
Tomorrow will be .
, % of the Moon is Illuminated

Today's Extremes

State Highs State Lows

Community

WunderPhotos

Category 6

Welcome to Category 6. This is the collective home for Weather Underground's featured writeups by Dr. Jeff Masters (right), Bob Henson (left), Chris Burt, and other regular contributors.

Nearby

Air Quality

  Air Quality AQ Index Pollutant
Not available.

Snow Depth

Station Depth Elevation

Earthquake Activity

City Distance Mag. Time & Date
Minimum magnitude displayed is 2.5.

Coastal Water Temperatures

Place Temperature

Stations

Nearby Weather Stations

Station Location Temp. Windchill Dew Point Humidity Wind Precip. Elev Updated Type
                   

Watches & Warnings

Coastal Flood Statement
Issued: 2:47 PM EDT Aug. 22, 2017 – National Weather Service

... Minor beach erosion and splash over is possible around the
time of the midnight high tide...

* location... seacoast New Hampshire and southwest coast of Maine.

* Timing... an hour either side of the 1235 am high tide.

* Impacts... minor beach erosion and splash over is possible.


Es